Anvik Airport Anvik US
ICAO: PANV
IATA:
Category: Medium
Scheduled Services:

Elevation: 291 ft
TransAlt. 18000 ft.

Airport Communications:
AWOS 3:133.55
ANCHORAGE CNTR:135.7
KENAI RDO:122.4
CTAF/UNICOM:122.7

PANV Zoom In..

Runways:

(A) RW 17 length 4000 ft width 75 ft
---- / hdg 172

(B) RW 35 length 4000 ft width 75 ft
---- / hdg 352

Location; PANV
Day. 22 / Time. 21.56 Zulu
* Altimeter: 30.06
* Temperature: 08° c. 46.4°f.
* Wind from: 040° Speed 07 kn.
Dewpoint: -07° c.
Visibility: 10 Statute Miles.
Clouds: Clear (automated report).

PANV 222156Z AUTO 04007KT 10SM CLR 08/M07 A3006 RMK AO2 SLP266 T00781072 TSNO

Going to: --> -->


Wind From 040°
Speed 07 kn.

 
 
jpsmedia worldairports.se 2021   terms of use